Time;durP1;ratioP1;P1;durP2;ratioP2;P2;SDS_P1;SDS_P2;PMS_P1;PMS_P2;Temp;Humidity;BMP_temperature;BMP_pressure;BME280_temperature;BME280_humidity;BME280_pressure;Samples;Min_cycle;Max_cycle;Signal;HPM_P1;HPM_P2
2022/08/22 00:00:12;;;;;;;7.80;3.60;;;17.00;75.70;;;;;;5051788;28;20431;-72
2022/08/22 00:03:14;;;;;;;12.30;3.30;;;17.10;75.90;;;;;;5059508;28;20458;-72
2022/08/22 00:06:11;;;;;;;8.23;3.50;;;17.20;75.70;;;;;;5048780;28;20538;-72
2022/08/22 00:09:08;;;;;;;4.77;3.50;;;17.20;75.40;;;;;;5060188;28;20759;-72
2022/08/22 00:12:01;;;;;;;5.43;3.40;;;17.40;75.40;;;;;;5053016;28;20431;-72
2022/08/22 00:14:53;;;;;;;8.50;3.73;;;17.30;75.20;;;;;;5053261;28;20506;-72
2022/08/22 00:17:45;;;;;;;6.53;2.83;;;17.40;74.90;;;;;;5050899;28;20431;-72
2022/08/22 00:20:36;;;;;;;5.87;3.13;;;17.40;75.10;;;;;;5052523;28;20880;-72
2022/08/22 00:23:25;;;;;;;6.37;3.33;;;17.50;75.30;;;;;;5058449;28;20456;-72
2022/08/22 00:26:32;;;;;;;11.13;3.10;;;17.60;75.00;;;;;;5045697;28;20919;-72
2022/08/22 00:29:24;;;;;;;6.00;3.20;;;17.50;74.90;;;;;;5052133;28;20506;-72
2022/08/22 00:32:20;;;;;;;7.40;3.27;;;17.40;74.90;;;;;;5055573;28;20422;-72
2022/08/22 00:35:14;;;;;;;6.23;2.93;;;17.40;75.10;;;;;;5049554;28;20890;-72
2022/08/22 00:38:05;;;;;;;5.97;2.80;;;17.40;75.10;;;;;;5052615;28;20901;-72
2022/08/22 00:40:57;;;;;;;9.93;3.93;;;17.30;74.80;;;;;;5054766;28;20793;-72
2022/08/22 00:44:30;;;;;;;12.47;3.40;;;17.20;75.20;;;;;;5049304;28;21004;-72
2022/08/22 00:47:40;;;;;;;11.90;3.93;;;17.10;75.90;;;;;;5046462;28;20593;-72
2022/08/22 00:51:01;;;;;;;11.47;3.60;;;17.10;76.20;;;;;;5058117;28;20428;-72
2022/08/22 00:53:53;;;;;;;12.13;3.03;;;17.20;76.00;;;;;;5054079;28;20484;-72
2022/08/22 00:57:11;;;;;;;5.93;2.97;;;17.10;76.00;;;;;;5046461;28;20455;-72
2022/08/22 01:00:08;;;;;;;5.20;3.80;;;16.90;76.70;;;;;;5052114;28;20428;-72
2022/08/22 01:03:28;;;;;;;6.07;3.70;;;16.90;76.80;;;;;;5054353;28;20976;-72
2022/08/22 01:06:24;;;;;;;6.60;3.30;;;16.70;77.70;;;;;;5045076;28;20447;-72
2022/08/22 01:09:21;;;;;;;5.73;3.43;;;16.60;78.70;;;;;;5050937;28;20506;-72
2022/08/22 01:12:32;;;;;;;6.43;3.80;;;16.60;79.10;;;;;;5048840;28;20438;-72
2022/08/22 01:15:24;;;;;;;6.43;3.60;;;16.60;80.00;;;;;;5043975;28;20443;-72
2022/08/22 01:18:29;;;;;;;6.53;3.40;;;16.50;80.50;;;;;;5048301;28;20813;-72
2022/08/22 01:21:51;;;;;;;5.23;2.77;;;16.60;80.40;;;;;;5052665;28;20416;-72
2022/08/22 01:25:18;;;;;;;5.73;3.80;;;16.80;80.20;;;;;;5016293;28;20518;-72
2022/08/22 01:28:37;;;;;;;5.87;3.13;;;16.80;79.80;;;;;;5056460;28;20493;-72
2022/08/22 01:31:52;;;;;;;5.33;3.50;;;16.80;79.30;;;;;;5053702;28;20431;-72
2022/08/22 01:35:03;;;;;;;9.00;3.50;;;16.60;80.00;;;;;;5050891;28;20641;-72
2022/08/22 01:38:26;;;;;;;8.93;3.37;;;16.50;81.00;;;;;;5054623;28;20436;-72
2022/08/22 01:41:35;;;;;;;4.73;3.47;;;16.40;81.00;;;;;;5023766;28;20937;-72
2022/08/22 01:44:49;;;;;;;7.40;3.80;;;16.40;81.50;;;;;;5048360;28;20737;-72
2022/08/22 01:47:39;;;;;;;6.27;3.87;;;16.50;82.00;;;;;;5052113;28;20542;-72
2022/08/22 01:50:32;;;;;;;8.90;3.03;;;16.70;81.90;;;;;;5052564;28;20490;-72
2022/08/22 01:53:25;;;;;;;7.57;3.23;;;16.70;81.20;;;;;;5052499;28;20467;-72
2022/08/22 01:56:15;;;;;;;6.37;3.50;;;16.60;81.10;;;;;;5052203;28;20493;-72
2022/08/22 01:59:02;;;;;;;6.63;3.13;;;16.50;81.10;;;;;;5055265;28;20501;-72
2022/08/22 02:01:59;;;;;;;7.57;3.60;;;16.40;81.70;;;;;;5047526;28;20420;-72
2022/08/22 02:04:53;;;;;;;4.90;3.10;;;16.30;82.60;;;;;;5045548;28;20455;-72
2022/08/22 02:07:48;;;;;;;5.87;3.50;;;16.30;82.80;;;;;;5051996;28;20397;-72
2022/08/22 02:10:55;;;;;;;4.03;2.60;;;16.30;83.20;;;;;;5047458;28;20424;-72
2022/08/22 02:13:53;;;;;;;5.80;3.30;;;16.20;83.80;;;;;;5046041;28;20558;-72
2022/08/22 02:16:42;;;;;;;4.33;3.40;;;16.20;83.90;;;;;;5051312;28;20444;-72
2022/08/22 02:19:38;;;;;;;11.50;3.93;;;16.40;83.80;;;;;;5058396;28;20960;-72
2022/08/22 02:22:34;;;;;;;6.73;3.43;;;16.30;83.90;;;;;;5051604;28;20578;-72
2022/08/22 02:25:25;;;;;;;5.43;2.77;;;16.40;83.40;;;;;;5044080;28;20443;-72
2022/08/22 02:28:19;;;;;;;12.03;4.43;;;16.40;83.30;;;;;;5048011;28;20801;-72
2022/08/22 02:31:10;;;;;;;5.67;3.00;;;16.50;83.20;;;;;;5058735;28;20427;-72
2022/08/22 02:33:58;;;;;;;7.97;3.60;;;16.60;83.70;;;;;;5044885;28;20612;-72
2022/08/22 02:36:53;;;;;;;5.10;3.43;;;16.60;83.80;;;;;;5049690;28;21064;-72
2022/08/22 02:39:46;;;;;;;9.40;3.43;;;16.70;83.30;;;;;;5048232;28;20431;-72
2022/08/22 02:42:41;;;;;;;7.40;3.30;;;16.80;83.20;;;;;;5049939;28;20439;-72
2022/08/22 02:45:34;;;;;;;4.97;3.67;;;16.70;82.70;;;;;;5048416;28;20931;-72
2022/08/22 02:48:32;;;;;;;6.30;3.70;;;16.70;82.40;;;;;;5052886;28;20434;-72
2022/08/22 02:51:23;;;;;;;4.70;3.20;;;16.50;82.60;;;;;;5050777;28;20811;-72
2022/08/22 02:54:17;;;;;;;8.60;3.57;;;16.40;83.50;;;;;;5037145;28;20480;-71
2022/08/22 02:57:07;;;;;;;6.10;3.03;;;16.20;84.50;;;;;;5058207;28;20427;-72
2022/08/22 03:00:12;;;;;;;6.63;3.70;;;16.00;85.60;;;;;;5060346;28;20899;-72
2022/08/22 03:03:06;;;;;;;5.20;2.93;;;16.20;85.40;;;;;;5056054;28;20463;-72
2022/08/22 03:05:59;;;;;;;9.30;3.50;;;16.20;85.30;;;;;;5051969;28;20493;-72
2022/08/22 03:09:06;;;;;;;6.00;3.50;;;16.20;85.50;;;;;;5053837;28;20423;-72
2022/08/22 03:12:14;;;;;;;5.60;3.70;;;16.10;86.30;;;;;;5053027;28;20974;-71
2022/08/22 03:15:08;;;;;;;5.87;4.03;;;16.10;86.20;;;;;;5049648;28;20471;-72
2022/08/22 03:18:00;;;;;;;6.37;3.57;;;16.00;86.50;;;;;;5054318;28;20431;-72
2022/08/22 03:20:51;;;;;;;4.90;3.60;;;16.00;87.30;;;;;;5057985;28;20879;-72
2022/08/22 03:23:41;;;;;;;6.33;3.67;;;16.10;87.10;;;;;;5055153;28;20462;-72
2022/08/22 03:26:32;;;;;;;7.10;4.00;;;16.20;87.00;;;;;;5056130;28;20423;-72
2022/08/22 03:29:24;;;;;;;13.57;3.80;;;16.10;87.00;;;;;;5056656;28;20572;-72
2022/08/22 03:32:14;;;;;;;6.70;3.93;;;16.10;86.40;;;;;;5051654;28;20940;-72
2022/08/22 03:35:02;;;;;;;4.83;2.93;;;16.10;86.60;;;;;;5051146;28;20455;-72
2022/08/22 03:37:51;;;;;;;6.70;3.57;;;16.00;87.00;;;;;;5055941;28;20500;-72
2022/08/22 03:40:52;;;;;;;9.50;3.40;;;15.80;87.50;;;;;;5056001;28;20859;-71
2022/08/22 03:44:20;;;;;;;6.77;3.53;;;15.90;87.70;;;;;;5045078;28;20991;-72
2022/08/22 03:47:33;;;;;;;7.13;3.73;;;15.90;87.60;;;;;;5052247;28;20427;-72
2022/08/22 03:50:49;;;;;;;5.70;3.90;;;15.80;87.60;;;;;;5054935;28;20532;-72
2022/08/22 03:54:04;;;;;;;8.63;4.00;;;15.80;87.70;;;;;;5042690;28;20469;-72
2022/08/22 03:57:21;;;;;;;7.63;3.93;;;15.70;88.50;;;;;;5054875;28;20422;-72
2022/08/22 04:00:34;;;;;;;7.57;3.80;;;15.60;89.30;;;;;;5051053;28;20482;-72
2022/08/22 04:03:57;;;;;;;6.47;3.87;;;15.50;89.90;;;;;;5050490;28;20539;-72
2022/08/22 04:07:10;;;;;;;6.30;4.10;;;15.50;90.30;;;;;;5055656;28;20410;-72
2022/08/22 04:10:36;;;;;;;7.47;3.97;;;15.50;90.40;;;;;;5052619;28;20952;-72
2022/08/22 04:13:51;;;;;;;9.73;3.47;;;15.60;90.50;;;;;;4985956;28;20474;-72
2022/08/22 04:17:20;;;;;;;11.63;3.60;;;15.70;90.30;;;;;;5051038;28;20435;-71
2022/08/22 04:20:20;;;;;;;6.90;4.37;;;15.70;89.30;;;;;;5054382;28;20427;-71
2022/08/22 04:23:27;;;;;;;12.30;4.30;;;15.50;89.60;;;;;;5049430;28;20548;-72
2022/08/22 04:26:17;;;;;;;14.47;3.93;;;15.50;90.10;;;;;;5050119;28;20427;-72
2022/08/22 04:29:08;;;;;;;6.73;3.80;;;15.40;90.30;;;;;;5054194;28;20432;-72
2022/08/22 04:31:59;;;;;;;6.73;4.07;;;15.50;90.20;;;;;;5047887;28;20824;-72
2022/08/22 04:34:50;;;;;;;7.33;3.67;;;15.60;90.00;;;;;;5050066;28;21046;-72
2022/08/22 04:37:43;;;;;;;4.93;3.07;;;15.50;90.10;;;;;;5052262;28;20420;-72
2022/08/22 04:40:34;;;;;;;7.30;3.67;;;15.50;90.30;;;;;;5053305;28;20436;-71
2022/08/22 04:43:25;;;;;;;6.87;3.90;;;15.50;90.20;;;;;;5047461;28;20470;-72
2022/08/22 04:46:19;;;;;;;9.73;3.80;;;15.60;90.50;;;;;;5049760;28;20502;-71
2022/08/22 04:49:10;;;;;;;7.90;3.83;;;15.60;90.60;;;;;;5048408;28;20936;-72
2022/08/22 04:52:07;;;;;;;10.30;3.77;;;15.50;90.30;;;;;;5048851;28;20506;-72
2022/08/22 04:55:03;;;;;;;7.07;3.67;;;15.30;90.70;;;;;;5051597;28;20471;-72
2022/08/22 04:57:56;;;;;;;5.63;3.60;;;15.30;91.10;;;;;;5051774;28;20473;-72
2022/08/22 05:00:49;;;;;;;11.90;6.20;;;15.30;91.50;;;;;;5051810;28;20427;-72
2022/08/22 05:03:37;;;;;;;6.00;4.07;;;15.30;91.60;;;;;;5061077;22;20537;-71
2022/08/22 05:06:28;;;;;;;4.57;3.27;;;15.30;92.00;;;;;;5049840;28;20442;-71
2022/08/22 05:09:26;;;;;;;5.70;3.40;;;15.60;92.00;;;;;;5051582;28;20786;-71
2022/08/22 05:12:19;;;;;;;5.90;3.80;;;15.80;91.80;;;;;;5040189;28;20456;-71
2022/08/22 05:15:10;;;;;;;7.80;3.83;;;15.80;92.00;;;;;;5050123;28;20510;-71
2022/08/22 05:17:59;;;;;;;6.50;3.87;;;15.80;91.70;;;;;;5049962;28;20510;-71
2022/08/22 05:20:48;;;;;;;9.43;3.70;;;15.90;91.40;;;;;;5052712;28;20418;-70
2022/08/22 05:23:37;;;;;;;6.87;3.40;;;15.90;91.20;;;;;;5052485;28;20548;-70
2022/08/22 05:26:23;;;;;;;11.30;3.47;;;16.00;91.50;;;;;;5054088;28;20431;-71
2022/08/22 05:29:13;;;;;;;7.50;3.77;;;16.10;91.60;;;;;;5053881;28;20435;-70
2022/08/22 05:32:04;;;;;;;9.23;3.77;;;16.20;91.50;;;;;;5047994;28;20583;-71
2022/08/22 05:34:53;;;;;;;7.70;4.10;;;16.10;91.70;;;;;;5051140;28;20482;-70
2022/08/22 05:37:47;;;;;;;5.73;4.37;;;16.20;91.80;;;;;;5050903;28;20423;-72
2022/08/22 05:40:36;;;;;;;4.83;3.00;;;16.20;91.70;;;;;;5050127;28;20424;-71
2022/08/22 05:43:25;;;;;;;8.50;4.27;;;16.40;91.70;;;;;;5048912;28;20467;-71
2022/08/22 05:46:18;;;;;;;8.60;3.70;;;16.50;91.50;;;;;;5058349;28;20526;-71
2022/08/22 05:49:11;;;;;;;5.80;3.80;;;16.60;91.50;;;;;;5056558;28;20432;-71
2022/08/22 05:52:09;;;;;;;4.53;3.03;;;16.70;91.60;;;;;;5039265;28;20543;-71
2022/08/22 05:55:03;;;;;;;6.80;4.10;;;16.70;91.50;;;;;;5045856;28;20793;-71
2022/08/22 05:57:53;;;;;;;5.90;3.60;;;16.70;91.50;;;;;;5058354;28;20409;-71
2022/08/22 06:00:43;;;;;;;8.63;4.00;;;16.70;91.40;;;;;;5044947;28;20806;-71
2022/08/22 06:03:36;;;;;;;5.30;3.60;;;16.80;91.50;;;;;;5057998;28;20477;-71
2022/08/22 06:06:23;;;;;;;5.40;3.20;;;16.90;91.40;;;;;;5043841;28;20819;-71
2022/08/22 06:09:31;;;;;;;13.20;3.93;;;17.00;91.40;;;;;;5048786;28;20430;-71
2022/08/22 06:12:21;;;;;;;8.63;4.73;;;17.10;91.30;;;;;;5047914;28;20447;-71
2022/08/22 06:15:14;;;;;;;7.33;3.40;;;17.20;91.20;;;;;;5053127;28;20467;-74
2022/08/22 06:18:09;;;;;;;5.60;3.70;;;17.30;90.80;;;;;;5049648;28;20506;-69
2022/08/22 06:20:59;;;;;;;5.50;3.80;;;17.50;90.70;;;;;;5052136;28;20447;-71
2022/08/22 06:23:49;;;;;;;5.90;3.73;;;17.70;91.00;;;;;;5050858;28;20806;-71
2022/08/22 06:26:38;;;;;;;7.70;3.77;;;17.80;90.70;;;;;;5050004;28;20424;-71
2022/08/22 06:29:33;;;;;;;5.37;3.63;;;18.00;90.60;;;;;;5061201;28;20486;-71
2022/08/22 06:32:26;;;;;;;5.07;3.30;;;18.10;90.60;;;;;;5047992;28;20455;-70
2022/08/22 06:35:18;;;;;;;7.93;3.40;;;18.20;90.80;;;;;;5057708;28;20467;-71
2022/08/22 06:38:06;;;;;;;7.73;5.00;;;18.40;90.80;;;;;;5056489;28;20499;-71
2022/08/22 06:40:53;;;;;;;5.80;3.20;;;18.50;90.90;;;;;;5051563;28;20444;-71
2022/08/22 06:43:43;;;;;;;6.70;3.70;;;18.60;90.40;;;;;;5055106;28;20940;-71
2022/08/22 06:46:31;;;;;;;6.03;3.63;;;18.70;90.30;;;;;;5062221;28;20640;-70
2022/08/22 06:49:18;;;;;;;7.30;3.70;;;18.90;90.60;;;;;;5059008;28;20993;-70
2022/08/22 06:52:07;;;;;;;9.97;4.23;;;19.00;90.30;;;;;;5054098;28;20451;-71
2022/08/22 06:55:00;;;;;;;5.73;4.03;;;19.10;90.20;;;;;;5054059;28;20453;-71
2022/08/22 06:57:55;;;;;;;5.23;4.10;;;19.30;89.50;;;;;;5056041;28;20438;-71
2022/08/22 07:00:43;;;;;;;6.43;3.50;;;19.50;90.10;;;;;;5052011;28;20841;-70
2022/08/22 07:03:33;;;;;;;5.60;3.80;;;19.60;87.70;;;;;;5057399;28;20594;-71
2022/08/22 07:06:30;;;;;;;4.87;3.97;;;19.80;86.90;;;;;;5060222;28;20439;-72
2022/08/22 07:09:22;;;;;;;5.60;3.50;;;20.00;86.60;;;;;;5055805;28;21054;-71
2022/08/22 07:12:17;;;;;;;5.17;3.63;;;20.10;88.80;;;;;;5050865;28;20466;-71
2022/08/22 07:15:11;;;;;;;5.80;3.93;;;20.30;90.40;;;;;;5059515;28;20471;-71
2022/08/22 07:18:00;;;;;;;8.33;3.93;;;20.50;81.20;;;;;;5054229;28;20790;-71
2022/08/22 07:20:49;;;;;;;9.00;4.10;;;20.70;81.00;;;;;;5047469;28;20463;-71
2022/08/22 07:23:39;;;;;;;8.30;4.50;;;20.80;81.80;;;;;;5059494;28;20928;-71
2022/08/22 07:26:33;;;;;;;5.00;4.20;;;21.00;79.40;;;;;;5055961;28;20430;-71
2022/08/22 07:29:32;;;;;;;9.63;4.30;;;21.20;81.40;;;;;;5057758;28;20971;-72
2022/08/22 07:32:21;;;;;;;6.77;4.20;;;21.30;72.10;;;;;;5060527;28;20432;-71
2022/08/22 07:35:11;;;;;;;5.57;4.20;;;21.40;66.60;;;;;;5053235;28;20487;-71
2022/08/22 07:38:03;;;;;;;8.50;4.40;;;21.60;71.40;;;;;;5058234;28;20949;-71
2022/08/22 07:40:57;;;;;;;4.40;3.50;;;21.70;71.40;;;;;;5053026;28;20458;-70
2022/08/22 07:43:48;;;;;;;5.60;4.50;;;21.80;68.00;;;;;;5061615;28;20490;-71
2022/08/22 07:46:38;;;;;;;6.10;4.60;;;22.00;68.50;;;;;;5058214;28;20459;-71
2022/08/22 07:49:29;;;;;;;5.83;4.40;;;22.00;69.60;;;;;;5053371;28;20431;-71
2022/08/22 07:52:15;;;;;;;5.73;3.63;;;22.00;67.10;;;;;;5058584;28;20430;-71
2022/08/22 07:55:09;;;;;;;7.00;4.33;;;22.10;65.30;;;;;;5050570;28;20645;-71
2022/08/22 07:57:59;;;;;;;10.60;4.43;;;22.20;69.20;;;;;;5061704;28;20435;-70
2022/08/22 08:00:46;;;;;;;6.90;4.10;;;22.20;69.20;;;;;;5056843;28;21098;-71
2022/08/22 08:03:34;;;;;;;6.60;4.10;;;22.20;61.70;;;;;;5055250;28;20471;-71
2022/08/22 08:06:22;;;;;;;8.83;3.97;;;22.30;64.90;;;;;;5058835;28;20924;-71
2022/08/22 08:09:12;;;;;;;6.73;4.00;;;22.50;64.40;;;;;;5049681;28;20423;-72
2022/08/22 08:12:00;;;;;;;4.57;3.90;;;22.60;59.40;;;;;;5053704;28;20904;-71
2022/08/22 08:14:52;;;;;;;7.73;3.50;;;22.80;54.10;;;;;;5056888;28;20832;-71
2022/08/22 08:17:39;;;;;;;5.60;3.63;;;22.80;52.70;;;;;;5052167;28;20427;-72
2022/08/22 08:20:28;;;;;;;5.70;3.70;;;23.00;51.30;;;;;;5054721;28;20448;-71
2022/08/22 08:23:18;;;;;;;5.63;3.90;;;23.10;54.70;;;;;;5058825;28;20567;-71
2022/08/22 08:26:10;;;;;;;4.70;3.60;;;23.30;53.40;;;;;;5053844;28;20565;-71
2022/08/22 08:28:57;;;;;;;5.73;3.90;;;23.50;50.10;;;;;;5052941;28;21031;-70
2022/08/22 08:31:44;;;;;;;5.93;4.03;;;23.70;50.20;;;;;;5058079;28;20420;-71
2022/08/22 08:34:32;;;;;;;5.77;4.03;;;23.90;48.80;;;;;;5054941;28;20566;-71
2022/08/22 08:37:26;;;;;;;7.43;3.43;;;24.00;47.30;;;;;;5058396;28;20482;-72
2022/08/22 08:40:25;;;;;;;5.70;3.40;;;24.20;44.00;;;;;;5047558;28;20896;-71
2022/08/22 08:43:26;;;;;;;6.93;3.80;;;24.30;45.30;;;;;;5058860;28;20463;-71
2022/08/22 08:46:53;;;;;;;5.00;3.67;;;24.30;40.70;;;;;;5053107;28;20426;-71
2022/08/22 08:50:00;;;;;;;5.80;3.83;;;24.40;39.80;;;;;;5051371;28;20459;-72
2022/08/22 08:53:34;;;;;;;7.83;3.67;;;24.60;39.60;;;;;;5057777;28;20438;-72
2022/08/22 08:56:33;;;;;;;5.23;3.97;;;24.70;38.10;;;;;;5058068;28;20475;-72
2022/08/22 08:59:44;;;;;;;5.67;3.30;;;24.80;37.60;;;;;;5050022;28;20456;-71
2022/08/22 09:02:54;;;;;;;9.37;4.10;;;24.90;38.40;;;;;;5056768;28;20456;-71
2022/08/22 09:05:54;;;;;;;8.00;4.00;;;25.00;35.80;;;;;;5055889;28;20424;-72
2022/08/22 09:09:10;;;;;;;4.80;4.30;;;25.20;37.50;;;;;;5056523;28;20956;-71
2022/08/22 09:12:24;;;;;;;7.10;4.00;;;25.30;35.40;;;;;;5055564;28;20423;-71
2022/08/22 09:15:28;;;;;;;4.90;3.37;;;25.50;35.50;;;;;;5055860;28;20490;-71
2022/08/22 09:18:43;;;;;;;5.17;4.20;;;25.60;34.50;;;;;;5051440;28;20493;-71
2022/08/22 09:22:01;;;;;;;6.50;4.00;;;25.70;34.00;;;;;;5060017;28;20427;-72
2022/08/22 09:25:15;;;;;;;6.80;3.80;;;25.80;33.70;;;;;;5056268;28;20439;-71
2022/08/22 09:28:09;;;;;;;5.90;3.63;;;25.90;34.10;;;;;;5052777;28;20427;-71
2022/08/22 09:31:10;;;;;;;5.60;3.53;;;25.90;32.00;;;;;;5051657;28;20474;-71
2022/08/22 09:34:03;;;;;;;4.60;3.50;;;26.00;32.10;;;;;;5058437;28;20468;-72
2022/08/22 09:37:15;;;;;;;5.10;3.60;;;26.10;30.00;;;;;;5061163;28;20828;-71
2022/08/22 09:40:07;;;;;;;8.50;3.60;;;26.10;29.50;;;;;;5049794;28;20450;-72
2022/08/22 09:43:04;;;;;;;9.83;3.27;;;26.10;28.90;;;;;;5050093;28;20444;-71
2022/08/22 09:46:01;;;;;;;6.60;4.00;;;26.20;29.30;;;;;;5047755;28;20439;-71
2022/08/22 09:48:57;;;;;;;3.90;2.80;;;26.30;29.10;;;;;;5047999;28;20959;-71
2022/08/22 09:51:53;;;;;;;7.97;3.80;;;26.30;29.90;;;;;;5051093;28;20491;-71
2022/08/22 09:54:46;;;;;;;5.27;3.53;;;26.50;28.00;;;;;;5059450;28;20524;-72
2022/08/22 09:57:40;;;;;;;5.80;3.50;;;26.40;27.00;;;;;;5053827;28;20471;-71
2022/08/22 10:00:33;;;;;;;6.67;3.13;;;26.50;27.70;;;;;;5046717;28;20490;-71
2022/08/22 10:03:26;;;;;;;4.63;3.10;;;26.60;27.60;;;;;;5053959;28;20472;-70
2022/08/22 10:06:17;;;;;;;5.30;3.30;;;26.70;25.10;;;;;;5056264;28;20493;-71
2022/08/22 10:09:06;;;;;;;5.00;3.40;;;26.80;25.90;;;;;;5044789;28;20467;-72
2022/08/22 10:11:59;;;;;;;6.50;3.37;;;27.00;26.00;;;;;;5049371;28;20431;-71
2022/08/22 10:15:03;;;;;;;10.60;2.83;;;27.10;25.10;;;;;;5050745;28;20451;-72
2022/08/22 10:18:02;;;;;;;3.83;2.10;;;27.10;24.40;;;;;;5048701;28;20443;-71
2022/08/22 10:21:01;;;;;;;6.90;3.00;;;27.00;23.50;;;;;;5054452;28;20431;-72
2022/08/22 10:23:54;;;;;;;4.37;3.00;;;27.10;24.30;;;;;;5054601;28;20529;-72
2022/08/22 10:26:47;;;;;;;5.40;3.20;;;27.30;24.60;;;;;;5053895;28;20478;-72
2022/08/22 10:29:51;;;;;;;6.30;4.10;;;27.50;25.20;;;;;;5052057;28;20498;-72
2022/08/22 10:32:43;;;;;;;4.80;2.87;;;27.50;24.00;;;;;;5061736;28;20421;-72
2022/08/22 10:35:34;;;;;;;7.00;3.37;;;27.40;25.10;;;;;;5057627;28;20606;-71
2022/08/22 10:38:25;;;;;;;5.63;3.20;;;27.40;25.80;;;;;;5051535;28;20439;-71
2022/08/22 10:41:22;;;;;;;10.93;3.37;;;27.40;23.60;;;;;;5054516;28;20810;-70
2022/08/22 10:44:16;;;;;;;6.17;3.30;;;27.30;24.20;;;;;;5049900;28;20447;-71
2022/08/22 10:47:08;;;;;;;6.37;3.67;;;27.20;25.80;;;;;;5047877;28;21118;-72
2022/08/22 10:50:03;;;;;;;7.20;3.77;;;27.40;25.20;;;;;;5052836;28;20567;-72
2022/08/22 10:53:28;;;;;;;5.30;3.23;;;27.60;24.80;;;;;;5057419;28;20972;-72
2022/08/22 10:56:04;;;;;;;8.53;3.63;;;27.70;24.20;;;;;;5056549;28;20487;-72
2022/08/22 10:58:55;;;;;;;5.13;3.10;;;27.80;24.40;;;;;;5049934;28;20915;-71
2022/08/22 11:01:51;;;;;;;5.30;3.73;;;27.60;25.30;;;;;;5052227;28;20912;-71
2022/08/22 11:05:06;;;;;;;6.20;3.30;;;27.50;25.90;;;;;;5035113;22;20492;-92
2022/08/22 11:08:16;;;;;;;3.77;2.63;;;27.50;25.70;;;;;;5023790;28;20484;-92
2022/08/22 11:11:18;;;;;;;4.90;3.30;;;27.40;24.90;;;;;;5031755;28;20425;-92
2022/08/22 11:14:27;;;;;;;5.30;3.20;;;27.30;25.60;;;;;;5020349;28;21525;-91
2022/08/22 11:17:31;;;;;;;4.63;3.40;;;27.50;25.00;;;;;;5027041;28;21056;-91
2022/08/22 11:20:22;;;;;;;4.97;3.40;;;27.50;25.10;;;;;;5040471;28;20572;-91
2022/08/22 11:23:25;;;;;;;5.20;3.20;;;27.30;24.80;;;;;;5029853;28;20948;-92
2022/08/22 11:26:30;;;;;;;7.63;2.90;;;27.10;25.60;;;;;;5036639;28;20436;-92
2022/08/22 11:29:28;;;;;;;4.70;3.70;;;27.00;24.70;;;;;;5037947;28;20451;-91
2022/08/22 11:32:17;;;;;;;7.00;3.23;;;26.80;24.20;;;;;;5040378;28;20429;-91
2022/08/22 11:35:14;;;;;;;8.00;3.80;;;26.70;25.00;;;;;;5036088;28;20497;-91
2022/08/22 11:38:03;;;;;;;4.50;2.87;;;26.70;24.60;;;;;;5024348;28;20485;-91
2022/08/22 11:40:59;;;;;;;4.10;2.90;;;26.80;24.50;;;;;;5033837;28;20519;-91
2022/08/22 11:43:51;;;;;;;6.20;2.87;;;27.10;24.70;;;;;;5027239;28;20471;-90
2022/08/22 11:46:40;;;;;;;4.20;2.33;;;27.50;24.30;;;;;;5028625;28;20465;-91
2022/08/22 11:49:38;;;;;;;16.03;3.30;;;27.80;23.40;;;;;;5030785;28;20950;-91
2022/08/22 11:52:37;;;;;;;9.20;3.53;;;28.20;23.60;;;;;;5029540;28;20428;-91
2022/08/22 11:55:27;;;;;;;4.07;2.60;;;28.40;21.20;;;;;;5030380;28;20942;-91
2022/08/22 11:58:25;;;;;;;6.20;2.73;;;28.60;21.30;;;;;;5029491;28;20594;-91
2022/08/22 12:01:16;;;;;;;6.30;2.80;;;28.80;21.40;;;;;;5030329;28;20480;-92
2022/08/22 12:04:09;;;;;;;6.53;2.97;;;29.10;22.30;;;;;;5033505;28;20436;-92
2022/08/22 12:07:01;;;;;;;8.17;3.40;;;29.30;21.80;;;;;;5026771;28;20476;-90
2022/08/22 12:09:53;;;;;;;4.50;2.70;;;29.40;20.10;;;;;;5031398;28;20916;-91
2022/08/22 12:12:52;;;;;;;4.77;2.80;;;29.50;20.80;;;;;;5032661;28;20453;-91
2022/08/22 12:15:47;;;;;;;5.20;3.13;;;29.50;21.30;;;;;;5028319;28;20463;-90
2022/08/22 12:18:49;;;;;;;4.27;2.93;;;29.70;20.50;;;;;;5030394;28;20584;-92
2022/08/22 12:22:11;;;;;;;5.10;2.30;;;29.90;20.20;;;;;;5031892;28;20928;-90
2022/08/22 12:25:09;;;;;;;4.70;2.87;;;29.90;18.80;;;;;;5023833;28;20428;-91
2022/08/22 12:28:11;;;;;;;3.93;3.07;;;29.90;19.40;;;;;;5031366;28;20476;-92
2022/08/22 12:31:16;;;;;;;5.17;2.80;;;30.00;19.20;;;;;;5032693;28;20955;-93
2022/08/22 12:34:15;;;;;;;7.00;3.20;;;30.20;19.40;;;;;;5032782;28;20503;-91
2022/08/22 12:37:09;;;;;;;5.10;2.93;;;30.30;17.80;;;;;;5020692;28;20607;-91
2022/08/22 12:40:13;;;;;;;4.60;2.50;;;30.10;18.10;;;;;;5027956;28;20424;-92
2022/08/22 12:43:26;;;;;;;3.80;2.47;;;29.90;17.40;;;;;;5028250;28;20440;-93
2022/08/22 12:46:23;;;;;;;4.70;2.70;;;29.90;17.70;;;;;;5027874;28;20941;-92
2022/08/22 12:49:25;;;;;;;4.83;2.90;;;29.70;16.60;;;;;;5030744;28;20433;-92
2022/08/22 12:52:24;;;;;;;4.93;2.40;;;30.00;18.00;;;;;;5028712;28;20539;-91
2022/08/22 12:55:45;;;;;;;5.10;3.33;;;30.30;17.50;;;;;;5030042;28;20953;-93
2022/08/22 12:58:45;;;;;;;4.27;2.60;;;30.60;17.10;;;;;;5027794;28;20465;-91
2022/08/22 13:01:37;;;;;;;4.57;2.50;;;30.70;17.10;;;;;;5029697;28;20433;-91
2022/08/22 13:04:25;;;;;;;4.30;2.50;;;30.80;16.20;;;;;;5027971;28;20436;-91
2022/08/22 13:07:19;;;;;;;6.30;3.00;;;30.90;17.00;;;;;;5027663;28;20555;-94
2022/08/22 13:10:16;;;;;;;4.93;3.13;;;31.00;16.10;;;;;;5033252;28;20428;-92
2022/08/22 13:13:04;;;;;;;4.40;2.30;;;31.30;16.50;;;;;;5029541;28;20429;-92
2022/08/22 13:15:56;;;;;;;3.43;2.10;;;31.50;15.20;;;;;;5018313;28;20454;-93
2022/08/22 13:18:53;;;;;;;5.50;2.63;;;31.70;15.90;;;;;;5033528;28;20471;-92
2022/08/22 13:21:46;;;;;;;4.30;2.50;;;31.80;15.30;;;;;;5029018;28;20424;-92
2022/08/22 13:24:40;;;;;;;4.63;2.70;;;31.90;14.30;;;;;;5026803;28;20448;-91
2022/08/22 13:27:42;;;;;;;5.60;2.60;;;31.80;13.70;;;;;;5031229;28;20476;-92
2022/08/22 13:30:32;;;;;;;6.80;3.40;;;31.50;14.30;;;;;;5031847;28;20431;-92
2022/08/22 13:33:35;;;;;;;5.60;2.47;;;31.00;14.50;;;;;;5030851;28;20453;-92
2022/08/22 13:36:24;;;;;;;8.73;2.73;;;30.40;14.90;;;;;;5037642;28;20927;-92
2022/08/22 13:39:25;;;;;;;4.30;2.37;;;30.00;15.00;;;;;;5048253;28;20404;-91
2022/08/22 13:42:18;;;;;;;4.60;2.87;;;29.90;15.40;;;;;;5031950;28;20423;-92
2022/08/22 13:45:11;;;;;;;4.90;2.60;;;30.00;15.30;;;;;;5031489;28;20563;-91
2022/08/22 13:48:00;;;;;;;3.90;2.30;;;29.90;16.60;;;;;;5030555;28;20862;-92
2022/08/22 13:51:06;;;;;;;4.23;2.20;;;29.60;16.10;;;;;;5030694;28;20948;-91
2022/08/22 13:54:02;;;;;;;4.17;2.70;;;29.30;16.60;;;;;;5028873;28;20436;-91
2022/08/22 13:56:56;;;;;;;3.93;2.57;;;29.20;17.90;;;;;;5031517;28;20460;-91
2022/08/22 13:59:47;;;;;;;3.97;2.30;;;29.40;18.40;;;;;;5028748;28;20504;-92
2022/08/22 14:02:55;;;;;;;3.73;2.40;;;29.90;17.70;;;;;;5025313;28;20805;-92
2022/08/22 14:05:45;;;;;;;5.93;2.67;;;30.10;16.30;;;;;;5030697;28;20436;-91
2022/08/22 14:08:35;;;;;;;9.37;2.63;;;30.20;17.50;;;;;;5030632;28;20483;-92
2022/08/22 14:11:30;;;;;;;3.43;2.30;;;30.10;17.70;;;;;;5030094;28;20555;-92
2022/08/22 14:14:24;;;;;;;4.93;2.70;;;29.90;18.20;;;;;;5021120;28;20438;-93
2022/08/22 14:17:16;;;;;;;7.37;2.90;;;29.90;15.90;;;;;;5025926;28;20444;-91
2022/08/22 14:20:08;;;;;;;4.90;2.50;;;30.10;16.00;;;;;;5031202;28;20417;-91
2022/08/22 14:22:57;;;;;;;3.80;2.47;;;30.40;15.90;;;;;;5031665;28;20926;-92
2022/08/22 14:25:45;;;;;;;6.43;3.40;;;30.30;16.80;;;;;;5026684;28;20424;-91
2022/08/22 14:28:35;;;;;;;6.90;2.50;;;30.30;16.70;;;;;;5026035;28;20686;-91
2022/08/22 14:31:25;;;;;;;5.57;2.83;;;30.10;16.30;;;;;;5027830;28;20901;-95
2022/08/22 14:34:14;;;;;;;3.90;2.63;;;29.90;16.20;;;;;;5029999;28;20420;-93
2022/08/22 14:37:06;;;;;;;4.23;2.33;;;29.90;17.50;;;;;;5027432;28;20532;-91
2022/08/22 14:40:04;;;;;;;3.70;2.30;;;30.20;16.90;;;;;;5023383;28;20440;-91
2022/08/22 14:43:03;;;;;;;6.27;2.80;;;30.50;15.30;;;;;;5024422;28;20512;-91
2022/08/22 14:45:57;;;;;;;4.40;2.67;;;30.70;14.50;;;;;;5034132;28;20579;-91
2022/08/22 14:48:48;;;;;;;5.10;2.63;;;30.80;15.00;;;;;;5025851;28;20490;-91
2022/08/22 14:51:34;;;;;;;3.70;2.50;;;30.60;15.50;;;;;;5024906;28;20456;-91
2022/08/22 14:54:23;;;;;;;4.37;3.13;;;30.60;17.00;;;;;;5026656;28;20868;-92
2022/08/22 14:57:14;;;;;;;4.70;2.73;;;30.70;16.80;;;;;;5030194;28;20464;-91
2022/08/22 15:00:03;;;;;;;3.93;2.30;;;30.60;16.40;;;;;;5033425;28;20491;-91
2022/08/22 15:02:50;;;;;;;4.37;2.70;;;30.70;17.20;;;;;;5025272;28;20533;-91
2022/08/22 15:05:43;;;;;;;4.23;2.90;;;30.70;16.90;;;;;;5032657;28;20526;-92
2022/08/22 15:08:33;;;;;;;4.23;2.73;;;30.70;16.00;;;;;;5033846;28;20526;-91
2022/08/22 15:11:23;;;;;;;7.00;3.00;;;30.50;16.60;;;;;;5029088;28;20810;-92
2022/08/22 15:14:14;;;;;;;8.20;3.10;;;30.30;17.80;;;;;;5027776;28;20564;-91
2022/08/22 15:17:04;;;;;;;5.60;3.00;;;30.00;18.30;;;;;;5035695;28;20444;-91